Union Diamond — ORLK — position and weather

sailwx.info

Track history (hours):
 
Tides and Currents Weather Stations Pressure Air Temp Water Temp Dewpoint Dewpoint Depression Visibility Wind Speed Wind Dir Waves Ship Positions

Union Diamond

Last reported at 2017-Sep-28 12:55 UTC. Time now 2017-Oct-19 09:29 UTC.
Position N 36°02' E 014°48'.
Warning: this ship's position is 20 days out of date.

Length 36 m; draft 5.1 m.

Type: Tow > 200 m length. MMSI: 205349000.

Date/timePositionNaut miles runAvg speedWind from/ knotsBaromVisibWave heightAir tempDewpointWater temp
2017-Sep-28 12:55N 36°02' E 014°48'5 7.3
2017-Sep-28 12:18N 35°59' E 014°43'2 4.7
2017-Sep-28 11:48N 35°57' E 014°42'3 0.8
2017-Sep-28 07:35N 35°55' E 014°45'0 1.4
2017-Sep-28 07:30N 35°55' E 014°45'1 1.7
2017-Sep-28 07:00N 35°55' E 014°44'3 5.9
2017-Sep-28 06:30N 35°56' E 014°41'4 7.4
2017-Sep-28 06:00N 35°57' E 014°36'1 2.6
2017-Sep-28 05:30N 35°57' E 014°35'0 0.1
2017-Sep-28 05:00N 35°57' E 014°35'3 5.2
2017-Sep-28 04:30N 35°59' E 014°32'4 8.1
2017-Sep-28 04:00N 36°01' E 014°28'4 8.0
2017-Sep-28 03:30N 36°03' E 014°24'4 8.0
2017-Sep-28 03:00N 36°06' E 014°20'4 7.7
2017-Sep-28 02:30N 36°07' E 014°16'4 7.8
2017-Sep-28 02:00N 36°09' E 014°12'4 7.8
2017-Sep-28 01:30N 36°11' E 014°07'4 8.1
2017-Sep-28 01:00N 36°13' E 014°03'4 8.0
2017-Sep-28 00:30N 36°14' E 013°58'  
2017-Sep-25 17:51N 37°21' E 006°06'4 7.9
2017-Sep-25 17:18N 37°20' E 006°00'10 7.9
2017-Sep-25 15:59N 37°19' E 005°47'8 7.9
2017-Sep-25 15:01N 37°18' E 005°38'0 7.9
2017-Sep-25 15:00N 37°18' E 005°38'4 7.7
2017-Sep-25 14:26N 37°17' E 005°32'3 7.7
2017-Sep-25 14:00N 37°17' E 005°28'4 7.8
2017-Sep-25 13:30N 37°16' E 005°23'4 7.8
2017-Sep-25 12:59N 37°16' E 005°18'4 7.8
2017-Sep-25 12:29N 37°16' E 005°13'4 7.9
2017-Sep-25 11:57N 37°15' E 005°08'49 8.2
2017-Sep-25 05:57N 37°09' E 004°07'4 8.3
2017-Sep-25 05:28N 37°09' E 004°02'4 8.4
2017-Sep-25 05:00N 37°08' E 003°57'4 8.4
2017-Sep-25 04:30N 37°08' E 003°52'4 8.4
2017-Sep-25 03:59N 37°08' E 003°46'4 8.4
2017-Sep-25 03:30N 37°07' E 003°41'4 8.5
2017-Sep-25 03:00N 37°07' E 003°36'4 8.7
2017-Sep-25 02:29N 37°06' E 003°31'7 8.8
2017-Sep-25 01:40N 37°05' E 003°21'1 8.9
2017-Sep-25 01:30N 37°05' E 003°20'4 8.7
2017-Sep-25 01:00N 37°05' E 003°14'4 8.7
2017-Sep-25 00:30N 37°04' E 003°09'4 8.6
2017-Sep-25 00:00N 37°04' E 003°03'5 8.6
2017-Sep-24 23:24N 37°03' E 002°57'3 8.4
2017-Sep-24 22:59N 37°03' E 002°53'  
2017-Sep-22 00:59N 36°15' W 007°56'5 8.0
2017-Sep-22 00:18N 36°17' W 008°02'140 7.2
2017-Sep-21 04:42N 38°04' W 009°56'5 8.1
2017-Sep-21 04:05N 38°09' W 009°58'14 8.3
2017-Sep-21 02:24N 38°23' W 010°02'4 9.1
2017-Sep-21 02:00N 38°26' W 010°03'4 9.2
2017-Sep-21 01:30N 38°31' W 010°04'5 9.0
2017-Sep-21 00:59N 38°35' W 010°05'5 9.0
2017-Sep-21 00:26N 38°40' W 010°07'4 9.2
2017-Sep-21 00:00N 38°44' W 010°07'5 9.0
2017-Sep-20 23:30N 38°49' W 010°07'5 8.7
2017-Sep-20 22:55N 38°54' W 010°07'4 8.5
2017-Sep-20 22:30N 38°57' W 010°07'  
Track history (hours):
 
Tides and Currents Weather Stations Pressure Air Temp Water Temp Dewpoint Dewpoint Depression Visibility Wind Speed Wind Dir Waves Ship Positions

Union Diamond

Last reported at 2017-Sep-28 12:55 UTC. Time now 2017-Oct-19 09:29 UTC.
Position N 36°02' E 014°48'.
Warning: this ship's position is 20 days out of date.

Length 36 m; draft 5.1 m.

Type: Tow > 200 m length. MMSI: 205349000.

Date/timePositionNaut miles runAvg speedWind from/ knotsBaromVisibWave heightAir tempDewpointWater temp
2017-Sep-28 12:55N 36°02' E 014°48'5 7.3
2017-Sep-28 12:18N 35°59' E 014°43'2 4.7
2017-Sep-28 11:48N 35°57' E 014°42'3 0.8
2017-Sep-28 07:35N 35°55' E 014°45'0 1.4
2017-Sep-28 07:30N 35°55' E 014°45'1 1.7
2017-Sep-28 07:00N 35°55' E 014°44'3 5.9
2017-Sep-28 06:30N 35°56' E 014°41'4 7.4
2017-Sep-28 06:00N 35°57' E 014°36'1 2.6
2017-Sep-28 05:30N 35°57' E 014°35'0 0.1
2017-Sep-28 05:00N 35°57' E 014°35'3 5.2
2017-Sep-28 04:30N 35°59' E 014°32'4 8.1
2017-Sep-28 04:00N 36°01' E 014°28'4 8.0
2017-Sep-28 03:30N 36°03' E 014°24'4 8.0
2017-Sep-28 03:00N 36°06' E 014°20'4 7.7
2017-Sep-28 02:30N 36°07' E 014°16'4 7.8
2017-Sep-28 02:00N 36°09' E 014°12'4 7.8
2017-Sep-28 01:30N 36°11' E 014°07'4 8.1
2017-Sep-28 01:00N 36°13' E 014°03'4 8.0
2017-Sep-28 00:30N 36°14' E 013°58'  
2017-Sep-25 17:51N 37°21' E 006°06'4 7.9
2017-Sep-25 17:18N 37°20' E 006°00'10 7.9
2017-Sep-25 15:59N 37°19' E 005°47'8 7.9
2017-Sep-25 15:01N 37°18' E 005°38'0 7.9
2017-Sep-25 15:00N 37°18' E 005°38'4 7.7
2017-Sep-25 14:26N 37°17' E 005°32'3 7.7
2017-Sep-25 14:00N 37°17' E 005°28'4 7.8
2017-Sep-25 13:30N 37°16' E 005°23'4 7.8
2017-Sep-25 12:59N 37°16' E 005°18'4 7.8
2017-Sep-25 12:29N 37°16' E 005°13'4 7.9
2017-Sep-25 11:57N 37°15' E 005°08'49 8.2
2017-Sep-25 05:57N 37°09' E 004°07'4 8.3
2017-Sep-25 05:28N 37°09' E 004°02'4 8.4
2017-Sep-25 05:00N 37°08' E 003°57'4 8.4
2017-Sep-25 04:30N 37°08' E 003°52'4 8.4
2017-Sep-25 03:59N 37°08' E 003°46'4 8.4
2017-Sep-25 03:30N 37°07' E 003°41'4 8.5
2017-Sep-25 03:00N 37°07' E 003°36'4 8.7
2017-Sep-25 02:29N 37°06' E 003°31'7 8.8
2017-Sep-25 01:40N 37°05' E 003°21'1 8.9
2017-Sep-25 01:30N 37°05' E 003°20'4 8.7
2017-Sep-25 01:00N 37°05' E 003°14'4 8.7
2017-Sep-25 00:30N 37°04' E 003°09'4 8.6
2017-Sep-25 00:00N 37°04' E 003°03'5 8.6
2017-Sep-24 23:24N 37°03' E 002°57'3 8.4
2017-Sep-24 22:59N 37°03' E 002°53'  
2017-Sep-22 00:59N 36°15' W 007°56'5 8.0
2017-Sep-22 00:18N 36°17' W 008°02'140 7.2
2017-Sep-21 04:42N 38°04' W 009°56'5 8.1
2017-Sep-21 04:05N 38°09' W 009°58'14 8.3
2017-Sep-21 02:24N 38°23' W 010°02'4 9.1
2017-Sep-21 02:00N 38°26' W 010°03'4 9.2
2017-Sep-21 01:30N 38°31' W 010°04'5 9.0
2017-Sep-21 00:59N 38°35' W 010°05'5 9.0
2017-Sep-21 00:26N 38°40' W 010°07'4 9.2
2017-Sep-21 00:00N 38°44' W 010°07'5 9.0
2017-Sep-20 23:30N 38°49' W 010°07'5 8.7
2017-Sep-20 22:55N 38°54' W 010°07'4 8.5
2017-Sep-20 22:30N 38°57' W 010°07'  

Dump ship's entire track history